createdAt,value
2023-04-08T00:00:30.904Z,8.10
2023-04-08T00:02:57.900Z,8.10
2023-04-08T00:05:24.901Z,8.00
2023-04-08T00:07:51.753Z,8.00
2023-04-08T00:10:19.234Z,8.00
2023-04-08T00:12:48.379Z,8.00
2023-04-08T00:15:15.356Z,8.00
2023-04-08T00:17:42.382Z,7.90
2023-04-08T00:20:09.993Z,7.80
2023-04-08T00:22:36.851Z,7.80
2023-04-08T00:25:06.624Z,8.20
2023-04-08T00:27:33.740Z,7.60
2023-04-08T00:30:01.702Z,7.50
2023-04-08T00:32:29.300Z,7.40
2023-04-08T00:34:56.607Z,7.40
2023-04-08T00:37:24.901Z,6.90
2023-04-08T00:39:54.025Z,7.30
2023-04-08T00:42:22.012Z,7.20
2023-04-08T00:44:49.156Z,7.20
2023-04-08T00:47:16.704Z,7.20
2023-04-08T00:49:44.449Z,7.10
2023-04-08T00:52:11.647Z,7.10
2023-04-08T00:54:38.982Z,7.10
2023-04-08T00:57:06.827Z,7.10
2023-04-08T00:59:36.021Z,7.00
2023-04-08T01:02:08.837Z,7.00
2023-04-08T01:05:02.407Z,7.00
2023-04-08T01:07:33.644Z,6.90
2023-04-08T01:10:07.889Z,6.80
2023-04-08T01:12:43.705Z,6.80
2023-04-08T01:15:12.538Z,6.70
2023-04-08T01:17:41.555Z,6.70
2023-04-08T01:20:10.411Z,6.70
2023-04-08T01:23:06.746Z,6.70
2023-04-08T01:25:36.872Z,6.70
2023-04-08T01:28:16.433Z,6.70
2023-04-08T01:30:44.981Z,6.80
2023-04-08T01:33:15.368Z,6.90
2023-04-08T01:35:42.687Z,7.00
2023-04-08T01:38:14.072Z,7.00
2023-04-08T01:40:42.014Z,6.90
2023-04-08T01:43:11.002Z,6.90
2023-04-08T01:45:39.001Z,6.90
2023-04-08T01:48:07.469Z,6.90
2023-04-08T01:50:35.303Z,6.90
2023-04-08T01:53:04.702Z,7.00
2023-04-08T01:55:37.377Z,7.10
2023-04-08T01:58:07.261Z,7.10
2023-04-08T02:00:35.780Z,7.20
2023-04-08T02:03:05.884Z,7.20
2023-04-08T02:05:33.652Z,7.30
2023-04-08T02:08:00.858Z,7.20
2023-04-08T02:10:27.955Z,7.30
2023-04-08T02:12:55.767Z,7.30
2023-04-08T02:15:22.920Z,7.40
2023-04-08T02:18:00.044Z,7.40
2023-04-08T02:20:34.687Z,7.40
2023-04-08T02:23:03.115Z,7.50
2023-04-08T02:25:31.829Z,7.50
2023-04-08T02:28:00.248Z,7.50
2023-04-08T02:30:28.253Z,7.50
2023-04-08T02:32:57.752Z,7.60
2023-04-08T02:35:25.866Z,7.50
2023-04-08T02:37:52.790Z,7.50
2023-04-08T02:40:31.721Z,7.50
2023-04-08T02:42:59.395Z,7.50
2023-04-08T02:45:40.817Z,7.60
2023-04-08T02:48:09.042Z,7.50
2023-04-08T02:50:36.009Z,7.40
2023-04-08T02:53:03.488Z,7.40
2023-04-08T02:55:32.669Z,7.50
2023-04-08T02:57:59.480Z,7.50
2023-04-08T03:00:26.305Z,7.60
2023-04-08T03:02:53.309Z,7.60
2023-04-08T03:05:20.566Z,7.60
2023-04-08T03:07:47.443Z,7.70
2023-04-08T03:10:14.503Z,7.60
2023-04-08T03:12:41.440Z,7.60
2023-04-08T03:15:08.760Z,7.60
2023-04-08T03:17:35.721Z,7.60
2023-04-08T03:20:05.140Z,7.60
2023-04-08T03:22:33.289Z,7.50
2023-04-08T03:25:00.323Z,7.50
2023-04-08T03:27:27.233Z,7.50
2023-04-08T03:29:54.287Z,7.60
2023-04-08T03:32:21.295Z,7.50
2023-04-08T03:34:51.051Z,7.50
2023-04-08T03:37:18.645Z,7.50
2023-04-08T03:39:46.314Z,7.50
2023-04-08T03:42:13.281Z,7.50
2023-04-08T03:44:40.251Z,7.50
2023-04-08T03:47:07.126Z,7.50
2023-04-08T03:49:34.025Z,7.50
2023-04-08T03:52:00.932Z,6.70
2023-04-08T03:54:27.789Z,7.60
2023-04-08T03:56:54.666Z,7.60
2023-04-08T03:59:21.535Z,7.60
2023-04-08T04:01:48.549Z,7.60
2023-04-08T04:04:16.439Z,7.60
2023-04-08T04:06:43.408Z,7.60
2023-04-08T04:09:11.181Z,7.60
2023-04-08T04:11:38.046Z,7.60
2023-04-08T04:14:04.902Z,7.60
2023-04-08T04:16:32.961Z,7.60
2023-04-08T04:19:00.383Z,7.60
2023-04-08T04:21:27.535Z,7.60
2023-04-08T04:23:54.553Z,7.60
2023-04-08T04:26:21.592Z,7.60
2023-04-08T04:28:48.806Z,7.60
2023-04-08T04:31:21.575Z,7.70
2023-04-08T04:33:49.359Z,7.70
2023-04-08T04:36:16.374Z,7.70
2023-04-08T04:38:43.736Z,7.70
2023-04-08T04:41:10.954Z,7.50
2023-04-08T04:43:38.126Z,7.50
2023-04-08T04:46:07.270Z,7.60
2023-04-08T04:48:34.715Z,7.60
2023-04-08T04:51:03.259Z,7.70
2023-04-08T04:53:33.081Z,7.70
2023-04-08T04:56:01.853Z,7.70
2023-04-08T04:58:29.921Z,7.70
2023-04-08T05:00:57.040Z,7.60
2023-04-08T05:03:24.119Z,7.80
2023-04-08T05:05:52.957Z,7.60
2023-04-08T05:08:20.395Z,7.60
2023-04-08T05:10:47.341Z,7.70
2023-04-08T05:13:14.224Z,7.70
2023-04-08T05:15:41.130Z,7.80
2023-04-08T05:18:08.083Z,8.80
2023-04-08T05:20:35.034Z,7.90
2023-04-08T05:23:01.874Z,7.80
2023-04-08T05:25:29.815Z,7.80
2023-04-08T05:27:57.492Z,7.90
2023-04-08T05:30:24.580Z,7.90
2023-04-08T05:32:51.532Z,7.80
2023-04-08T05:35:18.605Z,7.80
2023-04-08T05:37:47.767Z,7.80
2023-04-08T05:40:14.749Z,7.80
2023-04-08T05:42:42.725Z,7.80
2023-04-08T05:45:10.058Z,7.90
2023-04-08T05:47:37.050Z,8.00
2023-04-08T05:50:04.149Z,8.00
2023-04-08T05:52:31.157Z,8.00
2023-04-08T05:54:58.023Z,8.00
2023-04-08T05:57:24.840Z,8.10
2023-04-08T05:59:53.315Z,8.10
2023-04-08T06:02:20.304Z,8.20
2023-04-08T06:04:47.401Z,8.20
2023-04-08T06:07:14.318Z,8.20
2023-04-08T06:09:41.426Z,8.30
2023-04-08T06:12:08.228Z,8.30
2023-04-08T06:14:35.296Z,8.40
2023-04-08T06:17:02.329Z,8.40
2023-04-08T06:19:29.594Z,8.40
2023-04-08T06:21:58.989Z,8.50
2023-04-08T06:24:27.369Z,8.50
2023-04-08T06:26:54.343Z,8.50
2023-04-08T06:29:24.453Z,8.50
2023-04-08T06:31:51.342Z,8.50
2023-04-08T06:34:18.329Z,8.50
2023-04-08T06:36:45.170Z,8.50
2023-04-08T06:39:12.115Z,8.50
2023-04-08T06:41:38.920Z,8.50
2023-04-08T06:44:19.548Z,8.50
2023-04-08T06:46:46.752Z,8.60
2023-04-08T06:49:13.604Z,8.60
2023-04-08T06:51:40.454Z,8.60
2023-04-08T06:54:07.369Z,8.70
2023-04-08T06:56:34.565Z,8.70
2023-04-08T06:59:01.557Z,8.70
2023-04-08T07:01:28.455Z,8.70
2023-04-08T07:03:55.547Z,8.60
2023-04-08T07:06:22.581Z,8.70
2023-04-08T07:08:49.613Z,8.70
2023-04-08T07:11:16.734Z,8.70
2023-04-08T07:13:43.782Z,8.80
2023-04-08T07:16:11.086Z,8.70
2023-04-08T07:18:38.076Z,8.80
2023-04-08T07:21:05.152Z,8.80
2023-04-08T07:23:32.026Z,8.80
2023-04-08T07:26:04.232Z,8.90
2023-04-08T07:28:32.092Z,9.00
2023-04-08T07:31:10.811Z,9.10
2023-04-08T07:33:37.642Z,9.10
2023-04-08T07:36:04.633Z,9.20
2023-04-08T07:38:32.254Z,9.30
2023-04-08T07:40:59.144Z,9.30
2023-04-08T07:43:26.042Z,9.40
2023-04-08T07:45:53.001Z,9.50
2023-04-08T07:48:20.516Z,9.60
2023-04-08T07:51:08.960Z,9.70
2023-04-08T07:53:34.477Z,9.80
2023-04-08T07:56:01.986Z,10.00
2023-04-08T07:58:28.961Z,10.20
2023-04-08T08:00:57.420Z,10.50
2023-04-08T08:03:24.777Z,10.60
2023-04-08T08:05:51.906Z,10.80
2023-04-08T08:08:18.736Z,10.80
2023-04-08T08:10:45.591Z,10.90
2023-04-08T08:13:16.848Z,11.00
2023-04-08T08:15:43.722Z,11.00
2023-04-08T08:18:10.915Z,11.10
2023-04-08T08:20:37.795Z,11.10
2023-04-08T08:23:04.691Z,11.30
2023-04-08T08:25:32.033Z,11.30
2023-04-08T08:27:58.908Z,11.40
2023-04-08T08:30:26.518Z,11.40
2023-04-08T08:32:53.504Z,11.50
2023-04-08T08:35:20.512Z,11.70
2023-04-08T08:37:47.508Z,12.00
2023-04-08T08:40:15.437Z,12.20
2023-04-08T08:42:42.970Z,12.20
2023-04-08T08:45:10.347Z,12.20
2023-04-08T08:47:37.170Z,12.40
2023-04-08T08:50:04.346Z,12.60
2023-04-08T08:52:31.394Z,12.60
2023-04-08T08:54:59.326Z,12.50
2023-04-08T08:57:27.155Z,12.30
2023-04-08T08:59:54.173Z,12.20
2023-04-08T09:02:31.965Z,12.10
2023-04-08T09:05:02.275Z,12.10
2023-04-08T09:07:30.892Z,12.00
2023-04-08T09:09:59.384Z,12.00
2023-04-08T09:12:28.242Z,11.90
2023-04-08T09:15:09.205Z,11.90
2023-04-08T09:17:38.345Z,11.90
2023-04-08T09:20:12.959Z,12.00
2023-04-08T09:23:00.319Z,11.90
2023-04-08T09:25:32.712Z,11.90
2023-04-08T09:28:00.379Z,11.90
2023-04-08T09:30:28.145Z,11.90
2023-04-08T09:32:56.844Z,11.90
2023-04-08T09:35:25.061Z,11.80
2023-04-08T09:37:52.146Z,11.80
2023-04-08T09:40:19.394Z,11.80
2023-04-08T09:42:50.540Z,11.80
2023-04-08T09:45:18.442Z,11.90
2023-04-08T09:47:51.119Z,11.90
2023-04-08T09:50:23.558Z,12.00
2023-04-08T09:52:56.700Z,12.00
2023-04-08T09:55:25.802Z,12.00
2023-04-08T09:58:12.955Z,12.10
2023-04-08T10:00:50.382Z,12.20
2023-04-08T10:03:40.243Z,12.20
2023-04-08T10:06:10.380Z,12.30
2023-04-08T10:08:37.338Z,12.40
2023-04-08T10:11:04.595Z,12.40
2023-04-08T10:13:32.687Z,12.30
2023-04-08T10:16:29.837Z,12.40
2023-04-08T10:18:57.172Z,12.10
2023-04-08T10:21:33.954Z,12.10
2023-04-08T10:24:06.171Z,12.20
2023-04-08T10:26:44.796Z,12.20
2023-04-08T10:29:17.732Z,12.20
2023-04-08T10:31:45.055Z,12.20
2023-04-08T10:34:19.565Z,12.20
2023-04-08T10:36:47.316Z,12.20
2023-04-08T10:39:15.651Z,12.10
2023-04-08T10:42:02.723Z,12.10
2023-04-08T10:44:29.661Z,12.20
2023-04-08T10:46:56.564Z,11.70
2023-04-08T10:49:32.157Z,12.60
2023-04-08T10:51:59.226Z,12.70
2023-04-08T10:54:27.262Z,12.80
2023-04-08T10:56:54.692Z,13.00
2023-04-08T10:59:29.563Z,13.10
2023-04-08T11:01:57.174Z,13.20
2023-04-08T11:04:25.860Z,13.40
2023-04-08T11:06:53.617Z,13.50
2023-04-08T11:09:20.597Z,13.60
2023-04-08T11:11:47.648Z,13.70
2023-04-08T11:14:14.933Z,15.00
2023-04-08T11:16:42.592Z,13.90
2023-04-08T11:19:09.841Z,13.90
2023-04-08T11:21:37.571Z,14.00
2023-04-08T11:24:14.489Z,14.00
2023-04-08T11:26:42.769Z,13.90
2023-04-08T11:29:14.383Z,13.90
2023-04-08T11:31:42.547Z,13.90
2023-04-08T11:34:09.689Z,14.00
2023-04-08T11:36:36.975Z,14.10
2023-04-08T11:39:09.058Z,14.10
2023-04-08T11:41:40.585Z,14.30
2023-04-08T11:44:08.318Z,14.40
2023-04-08T11:46:35.795Z,14.40
2023-04-08T11:49:08.077Z,14.40
2023-04-08T11:51:38.453Z,14.40
2023-04-08T11:54:07.362Z,14.40
2023-04-08T11:56:46.957Z,14.70
2023-04-08T11:59:13.972Z,16.50
2023-04-08T12:01:40.938Z,20.80
2023-04-08T12:04:10.410Z,24.40
2023-04-08T12:06:37.541Z,24.80
2023-04-08T12:09:04.479Z,24.20
2023-04-08T12:11:31.456Z,22.50
2023-04-08T12:13:59.047Z,21.00
2023-04-08T12:16:26.416Z,19.80
2023-04-08T12:18:53.483Z,18.60
2023-04-08T12:21:20.377Z,17.80
2023-04-08T12:23:47.295Z,17.30
2023-04-08T12:26:14.631Z,16.80
2023-04-08T12:28:41.612Z,16.30
2023-04-08T12:31:08.584Z,15.90
2023-04-08T12:33:35.513Z,15.60
2023-04-08T12:36:02.706Z,15.50
2023-04-08T12:38:29.614Z,15.30
2023-04-08T12:40:56.585Z,15.30
2023-04-08T12:43:23.803Z,15.20
2023-04-08T12:45:51.223Z,15.20
2023-04-08T12:48:18.173Z,15.10
2023-04-08T12:50:45.141Z,15.10
2023-04-08T12:53:12.107Z,15.10
2023-04-08T12:55:39.058Z,15.10
2023-04-08T12:58:06.134Z,15.10
2023-04-08T13:00:33.268Z,15.00
2023-04-08T13:03:00.469Z,15.00
2023-04-08T13:05:42.130Z,15.00
2023-04-08T13:08:12.354Z,15.00
2023-04-08T13:10:39.439Z,15.20
2023-04-08T13:13:06.711Z,15.30
2023-04-08T13:15:33.578Z,15.60
2023-04-08T13:18:00.901Z,15.70
2023-04-08T13:20:28.239Z,15.80
2023-04-08T13:22:55.222Z,15.70
2023-04-08T13:25:22.297Z,15.50
2023-04-08T13:27:49.200Z,15.30
2023-04-08T13:30:16.557Z,15.20
2023-04-08T13:32:43.499Z,15.10
2023-04-08T13:35:10.445Z,15.00
2023-04-08T13:37:37.526Z,14.90
2023-04-08T13:40:05.075Z,14.80
2023-04-08T13:42:32.716Z,14.60
2023-04-08T13:44:59.566Z,14.40
2023-04-08T13:47:27.170Z,14.30
2023-04-08T13:49:54.143Z,14.30
2023-04-08T13:52:20.988Z,14.10
2023-04-08T13:54:47.857Z,14.00
2023-04-08T13:57:14.856Z,13.90
2023-04-08T13:59:44.309Z,13.80
2023-04-08T14:02:11.604Z,13.70
2023-04-08T14:04:39.885Z,13.70
2023-04-08T14:07:06.999Z,13.60
2023-04-08T14:09:33.926Z,13.50
2023-04-08T14:12:00.883Z,13.50
2023-04-08T14:14:27.739Z,13.40
2023-04-08T14:16:54.754Z,13.40
2023-04-08T14:19:21.611Z,13.40
2023-04-08T14:21:48.467Z,13.30
2023-04-08T14:24:15.659Z,13.30
2023-04-08T14:26:42.744Z,13.30
2023-04-08T14:29:09.652Z,13.30
2023-04-08T14:31:36.681Z,13.30
2023-04-08T14:34:03.765Z,13.30
2023-04-08T14:36:33.808Z,13.30
2023-04-08T14:39:00.750Z,13.40
2023-04-08T14:41:27.702Z,13.30
2023-04-08T14:43:54.603Z,13.30
2023-04-08T14:46:21.774Z,13.40
2023-04-08T14:48:49.118Z,13.30
2023-04-08T14:51:16.158Z,13.30
2023-04-08T14:53:42.928Z,13.40
2023-04-08T14:56:10.193Z,13.40
2023-04-08T14:58:37.225Z,13.50
2023-04-08T15:01:04.458Z,13.50
2023-04-08T15:03:31.484Z,13.50
2023-04-08T15:05:58.785Z,13.60
2023-04-08T15:08:25.708Z,13.50
2023-04-08T15:10:52.562Z,13.50
2023-04-08T15:13:19.427Z,13.50
2023-04-08T15:15:46.515Z,13.50
2023-04-08T15:18:13.460Z,13.50
2023-04-08T15:20:40.483Z,13.70
2023-04-08T15:23:07.890Z,13.80
2023-04-08T15:25:34.878Z,13.90
2023-04-08T15:28:02.733Z,13.90
2023-04-08T15:30:35.184Z,14.00
2023-04-08T15:33:05.770Z,14.00
2023-04-08T15:35:34.929Z,14.10
2023-04-08T15:38:01.874Z,14.00
2023-04-08T15:40:28.812Z,14.00
2023-04-08T15:42:56.502Z,13.90
2023-04-08T15:45:23.551Z,13.80
2023-04-08T15:47:50.600Z,13.80
2023-04-08T15:50:17.671Z,13.80
2023-04-08T15:52:44.818Z,13.80
2023-04-08T15:55:11.803Z,13.70
2023-04-08T15:57:39.081Z,13.70
2023-04-08T16:00:10.443Z,13.70
2023-04-08T16:02:40.577Z,13.70
2023-04-08T16:05:08.078Z,13.60
2023-04-08T16:07:35.004Z,13.60
2023-04-08T16:10:01.873Z,13.60
2023-04-08T16:12:29.011Z,13.60
2023-04-08T16:14:55.849Z,13.60
2023-04-08T16:17:23.155Z,13.50
2023-04-08T16:19:51.740Z,13.50
2023-04-08T16:22:19.422Z,13.50
2023-04-08T16:24:46.376Z,13.40
2023-04-08T16:27:13.325Z,13.40
2023-04-08T16:29:41.691Z,13.30
2023-04-08T16:32:09.032Z,13.30
2023-04-08T16:34:36.182Z,13.30
2023-04-08T16:37:03.064Z,13.30
2023-04-08T16:39:30.202Z,13.10
2023-04-08T16:41:57.224Z,12.90
2023-04-08T16:44:24.100Z,12.80
2023-04-08T16:46:51.338Z,12.80
2023-04-08T16:49:18.504Z,12.70
2023-04-08T16:51:45.515Z,12.70
2023-04-08T16:54:12.362Z,12.70
2023-04-08T16:56:44.367Z,12.70
2023-04-08T16:59:12.256Z,12.70
2023-04-08T17:01:39.293Z,12.70
2023-04-08T17:04:06.287Z,12.70
2023-04-08T17:06:35.043Z,12.70
2023-04-08T17:09:03.845Z,12.70
2023-04-08T17:11:31.064Z,12.70
2023-04-08T17:13:57.960Z,12.70
2023-04-08T17:16:24.986Z,12.70
2023-04-08T17:18:52.146Z,12.70
2023-04-08T17:21:19.963Z,12.70
2023-04-08T17:23:46.976Z,12.70
2023-04-08T17:26:13.919Z,12.70
2023-04-08T17:28:41.647Z,12.60
2023-04-08T17:31:08.755Z,12.70
2023-04-08T17:33:35.853Z,12.60
2023-04-08T17:36:02.749Z,12.60
2023-04-08T17:38:29.634Z,12.60
2023-04-08T17:40:56.634Z,12.60
2023-04-08T17:43:23.516Z,12.60
2023-04-08T17:45:51.536Z,12.60
2023-04-08T17:48:18.788Z,12.60
2023-04-08T17:50:45.694Z,12.60
2023-04-08T17:53:12.564Z,12.50
2023-04-08T17:55:39.408Z,12.50
2023-04-08T17:58:06.386Z,12.50
2023-04-08T18:00:33.291Z,12.40
2023-04-08T18:03:00.273Z,12.40
2023-04-08T18:05:27.276Z,12.40
2023-04-08T18:07:54.165Z,12.30
2023-04-08T18:10:23.075Z,12.30
2023-04-08T18:12:52.505Z,12.20
2023-04-08T18:15:21.995Z,12.20
2023-04-08T18:17:49.094Z,12.10
2023-04-08T18:20:16.113Z,12.10
2023-04-08T18:22:43.099Z,12.10
2023-04-08T18:25:10.160Z,12.10
2023-04-08T18:27:37.100Z,12.10
2023-04-08T18:30:04.287Z,12.00
2023-04-08T18:32:31.274Z,12.00
2023-04-08T18:34:58.251Z,12.00
2023-04-08T18:37:25.814Z,12.00
2023-04-08T18:39:52.798Z,12.00
2023-04-08T18:42:19.686Z,12.00
2023-04-08T18:44:46.629Z,12.00
2023-04-08T18:47:13.544Z,11.90
2023-04-08T18:49:40.344Z,12.00
2023-04-08T18:52:08.393Z,12.00
2023-04-08T18:54:35.826Z,12.00
2023-04-08T18:57:02.990Z,12.00
2023-04-08T18:59:30.340Z,12.00
2023-04-08T19:01:57.480Z,11.90
2023-04-08T19:04:24.742Z,11.90
2023-04-08T19:06:51.688Z,11.70
2023-04-08T19:09:19.183Z,11.70
2023-04-08T19:11:46.193Z,11.70
2023-04-08T19:14:13.119Z,11.70
2023-04-08T19:16:41.614Z,11.60
2023-04-08T19:19:09.018Z,11.60
2023-04-08T19:21:37.830Z,11.60
2023-04-08T19:24:06.170Z,11.50
2023-04-08T19:26:33.944Z,11.50
2023-04-08T19:29:01.262Z,11.50
2023-04-08T19:31:28.684Z,11.40
2023-04-08T19:33:55.814Z,11.40
2023-04-08T19:36:22.814Z,11.40
2023-04-08T19:38:49.875Z,11.40
2023-04-08T19:41:16.796Z,11.30
2023-04-08T19:43:43.732Z,11.30
2023-04-08T19:46:10.625Z,11.30
2023-04-08T19:48:38.126Z,11.30
2023-04-08T19:51:05.103Z,11.30
2023-04-08T19:53:32.022Z,11.20
2023-04-08T19:56:02.642Z,11.10
2023-04-08T19:58:29.517Z,11.10
2023-04-08T20:00:56.605Z,11.10
2023-04-08T20:03:23.800Z,11.00
2023-04-08T20:05:51.087Z,11.00
2023-04-08T20:08:17.969Z,11.00
2023-04-08T20:10:44.925Z,11.00
2023-04-08T20:13:11.861Z,10.90
2023-04-08T20:15:38.768Z,10.80
2023-04-08T20:18:05.697Z,10.80
2023-04-08T20:20:32.697Z,10.70
2023-04-08T20:22:59.544Z,10.60
2023-04-08T20:25:26.637Z,10.60
2023-04-08T20:27:53.519Z,10.50
2023-04-08T20:30:20.456Z,10.40
2023-04-08T20:32:47.391Z,10.40
2023-04-08T20:35:14.362Z,10.30
2023-04-08T20:37:41.674Z,10.30
2023-04-08T20:40:09.154Z,10.30
2023-04-08T20:42:36.445Z,10.20
2023-04-08T20:45:06.807Z,10.20
2023-04-08T20:47:33.726Z,10.30
2023-04-08T20:50:00.801Z,10.30
2023-04-08T20:52:29.374Z,10.30
2023-04-08T20:54:56.255Z,10.30
2023-04-08T20:57:23.171Z,10.30
2023-04-08T20:59:50.065Z,10.30
2023-04-08T21:02:20.730Z,10.30
2023-04-08T21:04:48.683Z,10.30
2023-04-08T21:07:15.697Z,10.30
2023-04-08T21:09:42.611Z,10.30
2023-04-08T21:12:09.596Z,10.30
2023-04-08T21:14:36.452Z,10.20
2023-04-08T21:17:03.303Z,10.20
2023-04-08T21:19:30.355Z,10.20
2023-04-08T21:21:58.337Z,10.20
2023-04-08T21:24:25.483Z,10.20
2023-04-08T21:26:52.531Z,10.10
2023-04-08T21:29:19.509Z,10.10
2023-04-08T21:31:46.473Z,10.10
2023-04-08T21:34:13.480Z,10.10
2023-04-08T21:36:40.329Z,10.10
2023-04-08T21:39:07.234Z,10.10
2023-04-08T21:41:34.028Z,10.10
2023-04-08T21:44:01.062Z,10.00
2023-04-08T21:46:27.952Z,9.90
2023-04-08T21:48:54.895Z,9.90
2023-04-08T21:51:21.817Z,9.90
2023-04-08T21:53:50.841Z,9.90
2023-04-08T21:56:18.355Z,9.80
2023-04-08T21:58:45.505Z,9.80
2023-04-08T22:01:12.960Z,9.90
2023-04-08T22:03:39.925Z,9.90
2023-04-08T22:06:19.192Z,10.90
2023-04-08T22:08:52.752Z,10.10
2023-04-08T22:11:19.796Z,10.20
2023-04-08T22:13:46.568Z,10.20
2023-04-08T22:16:13.449Z,10.30
2023-04-08T22:18:40.377Z,10.20
2023-04-08T22:21:07.602Z,10.10
2023-04-08T22:23:34.530Z,10.10
2023-04-08T22:26:01.489Z,10.10
2023-04-08T22:28:28.342Z,10.10
2023-04-08T22:30:55.458Z,10.20
2023-04-08T22:33:22.493Z,10.10
2023-04-08T22:35:49.438Z,10.10
2023-04-08T22:38:16.351Z,10.00
2023-04-08T22:40:43.204Z,10.00
2023-04-08T22:43:11.382Z,9.90
2023-04-08T22:45:38.325Z,9.90
2023-04-08T22:48:05.368Z,9.90
2023-04-08T22:50:33.289Z,9.90
2023-04-08T22:53:00.651Z,9.80
2023-04-08T22:55:27.476Z,9.80
2023-04-08T22:57:54.358Z,9.80
2023-04-08T23:00:21.339Z,9.80
2023-04-08T23:02:48.246Z,9.80
2023-04-08T23:05:15.464Z,9.80
2023-04-08T23:07:42.477Z,9.70
2023-04-08T23:10:09.850Z,9.70
2023-04-08T23:12:36.718Z,9.70
2023-04-08T23:15:04.409Z,9.70
2023-04-08T23:17:31.278Z,9.70
2023-04-08T23:19:58.148Z,9.70
2023-04-08T23:22:25.086Z,9.60
2023-04-08T23:24:52.007Z,9.50
2023-04-08T23:27:18.890Z,9.30
2023-04-08T23:29:45.756Z,9.20
2023-04-08T23:32:12.694Z,9.20
2023-04-08T23:34:39.490Z,9.00
2023-04-08T23:37:06.380Z,9.00
2023-04-08T23:39:33.462Z,8.90
2023-04-08T23:42:01.674Z,8.80
2023-04-08T23:44:28.646Z,8.50
2023-04-08T23:46:55.680Z,8.40
2023-04-08T23:49:22.644Z,8.40
2023-04-08T23:51:49.547Z,8.30
2023-04-08T23:54:16.360Z,8.20
2023-04-08T23:56:43.255Z,7.90
2023-04-08T23:59:10.147Z,7.80
